Time;durP1;ratioP1;P1;durP2;ratioP2;P2;SDS_P1;SDS_P2;PMS_P1;PMS_P2;Temp;Humidity;BMP_temperature;BMP_pressure;BME280_temperature;BME280_humidity;BME280_pressure;Samples;Min_cycle;Max_cycle;Signal;HPM_P1;HPM_P2
2021/03/24 00:00:01;;;;;;;47.97;31.07;;;;;;;3.49;73.69;101641.41;5032031;28;20199;-66
2021/03/24 00:02:28;;;;;;;52.37;30.90;;;;;;;3.41;73.54;101647.72;5032651;28;20206;-63
2021/03/24 00:04:54;;;;;;;53.20;32.03;;;;;;;3.33;73.39;101641.72;5033789;28;20237;-66
2021/03/24 00:07:20;;;;;;;50.83;30.93;;;;;;;3.26;73.56;101648.84;5027266;28;20232;-66
2021/03/24 00:09:46;;;;;;;62.60;35.23;;;;;;;3.24;73.32;101642.75;5031792;28;20214;-65
2021/03/24 00:12:12;;;;;;;66.13;35.80;;;;;;;3.22;73.49;101641.94;5030910;28;20202;-66
2021/03/24 00:14:38;;;;;;;66.13;37.27;;;;;;;3.25;74.49;101643.63;5031580;28;20273;-65
2021/03/24 00:17:05;;;;;;;66.97;36.77;;;;;;;3.25;74.25;101639.22;5031727;28;20206;-65
2021/03/24 00:19:32;;;;;;;60.40;36.23;;;;;;;3.27;74.45;101647.97;5030681;28;20198;-64
2021/03/24 00:21:58;;;;;;;62.23;36.53;;;;;;;3.29;74.65;101650.56;5023998;28;20686;-65
2021/03/24 00:24:24;;;;;;;60.60;36.27;;;;;;;3.29;74.62;101653.19;5029144;28;20233;-66
2021/03/24 00:26:50;;;;;;;56.03;34.53;;;;;;;3.29;75.03;101651.44;5025905;28;20737;-66
2021/03/24 00:29:16;;;;;;;57.40;34.80;;;;;;;3.29;75.07;101654.06;5021816;28;20700;-63
2021/03/24 00:31:42;;;;;;;64.93;38.43;;;;;;;3.29;74.87;101654.06;5029321;28;20238;-65
2021/03/24 00:34:09;;;;;;;64.77;36.90;;;;;;;3.29;75.12;101655.84;5026471;28;20226;-64
2021/03/24 00:36:36;;;;;;;62.10;36.13;;;;;;;3.27;75.22;101653.22;5024603;28;20249;-65
2021/03/24 00:39:02;;;;;;;60.43;36.00;;;;;;;3.27;74.54;101647.97;5030584;28;20289;-65
2021/03/24 00:41:28;;;;;;;59.83;34.20;;;;;;;3.25;75.22;101654.16;5030382;28;20198;-65
2021/03/24 00:43:54;;;;;;;60.13;33.93;;;;;;;3.23;74.41;101635.75;5031027;28;20232;-65
2021/03/24 00:46:20;;;;;;;61.23;35.77;;;;;;;3.20;74.81;101641.09;5028124;28;20251;-66
2021/03/24 00:48:46;;;;;;;61.37;34.67;;;;;;;3.19;74.49;101647.25;5030062;28;20237;-65
2021/03/24 00:51:12;;;;;;;57.43;34.20;;;;;;;3.15;74.43;101645.56;5025640;28;20699;-65
2021/03/24 00:53:39;;;;;;;56.27;33.20;;;;;;;3.09;74.75;101643.88;5029681;28;20309;-65
2021/03/24 00:56:06;;;;;;;55.70;34.87;;;;;;;3.04;75.01;101643.13;5028561;28;20214;-66
2021/03/24 00:58:32;;;;;;;62.23;34.80;;;;;;;3.00;75.09;101630.03;5029179;28;20210;-66
2021/03/24 01:00:58;;;;;;;62.87;35.70;;;;;;;2.97;74.86;101635.34;5030299;28;20210;-66
2021/03/24 01:03:24;;;;;;;65.37;36.10;;;;;;;2.95;74.79;101629.22;5029716;28;20238;-65
2021/03/24 01:05:51;;;;;;;57.80;33.77;;;;;;;2.93;74.95;101626.63;5030082;28;20637;-65
2021/03/24 01:08:20;;;;;;;57.27;33.20;;;;;;;2.89;74.54;101639.84;5030393;28;20266;-65
2021/03/24 01:10:47;;;;;;;58.10;33.47;;;;;;;2.84;75.22;101639.06;5029744;28;20226;-65
2021/03/24 01:13:15;;;;;;;53.13;32.63;;;;;;;2.76;75.00;101634.78;5029118;28;20228;-65
2021/03/24 01:15:41;;;;;;;60.27;34.87;;;;;;;2.72;74.71;101635.72;5030050;28;20694;-65
2021/03/24 01:18:08;;;;;;;55.43;32.43;;;;;;;2.70;74.52;101639.25;5028818;28;20652;-65
2021/03/24 01:20:36;;;;;;;62.07;34.13;;;;;;;2.67;75.23;101637.56;5029886;28;20216;-62
2021/03/24 01:23:03;;;;;;;57.60;33.73;;;;;;;2.65;74.91;101643.72;5029016;28;20253;-66
2021/03/24 01:25:29;;;;;;;59.17;34.13;;;;;;;2.58;74.70;101639.44;5030453;28;20213;-65
2021/03/24 01:27:57;;;;;;;54.13;32.93;;;;;;;2.53;74.77;101634.25;5029383;28;20208;-65
2021/03/24 01:30:25;;;;;;;58.80;33.37;;;;;;;2.48;75.40;101633.47;5029869;28;20704;-63
2021/03/24 01:32:52;;;;;;;60.50;34.03;;;;;;;2.45;75.03;101638.75;5029814;28;20208;-66
2021/03/24 01:35:19;;;;;;;58.07;33.53;;;;;;;2.43;74.79;101644.03;5030028;28;20306;-65
2021/03/24 01:37:46;;;;;;;59.03;32.60;;;;;;;2.40;74.88;101640.56;5029448;28;20206;-65
2021/03/24 01:40:17;;;;;;;55.10;32.90;;;;;;;2.36;74.99;101641.50;5029888;28;20202;-66
2021/03/24 01:42:43;;;;;;;54.23;32.43;;;;;;;2.33;75.05;101638.94;5029546;28;20255;-62
2021/03/24 01:46:08;;;;;;;55.53;33.13;;;;;;;2.30;75.45;101636.34;5029631;28;20676;-64
2021/03/24 01:48:36;;;;;;;59.77;33.73;;;;;;;2.29;75.21;101626.72;5027927;28;20212;-65
2021/03/24 01:51:02;;;;;;;57.57;34.40;;;;;;;2.29;75.88;101631.97;5026153;28;20218;-64
2021/03/24 01:53:30;;;;;;;60.50;33.43;;;;;;;2.29;75.47;101631.97;5029109;28;20292;-66
2021/03/24 01:55:56;;;;;;;56.90;33.37;;;;;;;2.26;75.31;101622.38;5029819;28;20205;-65
2021/03/24 01:58:22;;;;;;;62.93;34.57;;;;;;;2.27;75.58;101625.88;5028888;28;20233;-64
2021/03/24 02:00:51;;;;;;;56.93;32.57;;;;;;;2.26;75.76;101624.13;5029491;28;20202;-64
2021/03/24 02:03:20;;;;;;;64.07;34.57;;;;;;;2.24;75.45;101628.53;5027454;28;20229;-64
2021/03/24 02:05:46;;;;;;;61.00;34.53;;;;;;;2.23;76.04;101626.78;5017378;28;20198;-64
2021/03/24 02:08:18;;;;;;;64.07;35.23;;;;;;;2.21;75.69;101634.69;5017632;28;20301;-62
2021/03/24 02:10:49;;;;;;;61.47;34.67;;;;;;;2.21;76.09;101628.56;5016785;28;20337;-65
2021/03/24 02:13:20;;;;;;;65.33;35.57;;;;;;;2.20;75.82;101642.59;5016936;28;20226;-64
2021/03/24 02:15:51;;;;;;;69.03;36.37;;;;;;;2.18;75.92;101625.97;5015352;28;20234;-63
2021/03/24 02:18:20;;;;;;;59.77;35.17;;;;;;;2.15;76.20;101632.13;5016125;28;20308;-65
2021/03/24 02:20:50;;;;;;;69.17;37.83;;;;;;;2.15;76.43;101631.31;5015255;28;20289;-65
2021/03/24 02:23:25;;;;;;;65.13;35.40;;;;;;;2.14;76.65;101637.44;5015906;28;20227;-61
2021/03/24 02:25:54;;;;;;;71.70;36.67;;;;;;;2.12;76.42;101633.97;5013488;28;20287;-64
2021/03/24 02:28:22;;;;;;;65.40;36.70;;;;;;;2.11;76.49;101629.59;5020855;28;20207;-65
2021/03/24 02:30:50;;;;;;;69.63;38.47;;;;;;;2.10;76.99;101631.34;5015485;28;20228;-64
2021/03/24 02:33:20;;;;;;;66.47;36.03;;;;;;;2.09;77.04;101624.34;5018084;28;20290;-64
2021/03/24 02:35:48;;;;;;;64.93;35.33;;;;;;;2.11;77.24;101629.59;5016552;28;20198;-66
2021/03/24 02:38:16;;;;;;;68.20;36.30;;;;;;;2.13;77.18;101627.81;5018673;28;20217;-67
2021/03/24 02:40:45;;;;;;;71.43;36.73;;;;;;;2.15;77.05;101621.63;5024911;28;20199;-64
2021/03/24 02:43:13;;;;;;;69.57;36.33;;;;;;;2.19;77.24;101619.84;5024385;28;20226;-64
2021/03/24 02:45:44;;;;;;;71.57;38.93;;;;;;;2.23;77.87;101621.53;5023746;28;20202;-65
2021/03/24 02:48:13;;;;;;;74.70;38.10;;;;;;;2.28;77.26;101614.47;5023641;28;20202;-67
2021/03/24 02:50:42;;;;;;;74.90;38.80;;;;;;;2.33;77.50;101612.66;5017544;28;20277;-65
2021/03/24 02:53:10;;;;;;;79.23;41.50;;;;;;;2.37;78.42;101611.69;5020849;28;20237;-63
2021/03/24 02:55:40;;;;;;;74.50;39.70;;;;;;;2.41;77.95;101608.13;5015395;28;20338;-67
2021/03/24 02:58:06;;;;;;;79.13;40.63;;;;;;;2.46;78.11;101601.06;5020998;28;20257;-68
2021/03/24 03:00:33;;;;;;;74.93;37.90;;;;;;;2.50;77.99;101599.25;5024952;28;20202;-67
2021/03/24 03:03:02;;;;;;;73.93;39.87;;;;;;;2.50;78.02;101608.03;5023456;28;20268;-63
2021/03/24 03:05:31;;;;;;;72.10;38.60;;;;;;;2.51;78.30;101593.94;5072050;22;20234;-63
2021/03/24 03:08:04;;;;;;;71.60;38.30;;;;;;;2.52;78.64;101605.34;5043835;28;20288;-63
2021/03/24 03:10:37;;;;;;;73.00;38.03;;;;;;;2.54;78.83;101601.78;5044958;28;20750;-64
2021/03/24 03:13:08;;;;;;;76.17;38.90;;;;;;;2.57;78.38;101603.50;5050230;28;20660;-60
2021/03/24 03:15:39;;;;;;;78.13;41.23;;;;;;;2.60;78.58;101604.34;5031445;28;20236;-63
2021/03/24 03:18:09;;;;;;;77.67;41.27;;;;;;;2.64;78.67;101603.41;5032282;28;20209;-61
2021/03/24 03:20:45;;;;;;;81.60;41.73;;;;;;;2.66;79.41;101593.75;5030965;28;20206;-61
2021/03/24 03:23:16;;;;;;;84.80;42.23;;;;;;;2.70;78.94;101605.06;5031459;28;20205;-63
2021/03/24 03:25:48;;;;;;;85.27;43.87;;;;;;;2.74;79.05;101599.72;5024319;28;20268;-60
2021/03/24 03:28:18;;;;;;;105.73;48.23;;;;;;;2.77;79.32;101604.06;5028473;28;20210;-61
2021/03/24 03:30:49;;;;;;;103.33;48.23;;;;;;;2.84;79.98;101610.13;5030018;28;20222;-63
2021/03/24 03:33:19;;;;;;;146.13;57.00;;;;;;;2.94;80.35;101604.66;5028124;28;20206;-62
2021/03/24 03:35:45;;;;;;;177.10;65.77;;;;;;;3.15;81.30;101608.69;5028697;28;20233;-63
2021/03/24 03:38:15;;;;;;;156.13;62.23;;;;;;;3.41;81.98;101597.69;5031097;28;20765;-62
2021/03/24 03:40:43;;;;;;;145.20;60.83;;;;;;;3.62;81.33;101601.66;5030063;28;20572;-62
2021/03/24 03:43:12;;;;;;;135.77;56.87;;;;;;;3.80;82.33;101596.03;5030888;28;20264;-62
2021/03/24 03:45:39;;;;;;;128.50;57.57;;;;;;;3.95;81.90;101585.16;5030439;28;20624;-63
2021/03/24 03:48:07;;;;;;;126.57;56.20;;;;;;;4.09;82.37;101585.78;5027847;28;20643;-63
2021/03/24 03:50:34;;;;;;;120.23;55.27;;;;;;;4.22;82.27;101583.72;5031055;28;20602;-63
2021/03/24 03:53:11;;;;;;;120.87;55.57;;;;;;;4.31;82.60;101585.28;5031188;28;20476;-63
2021/03/24 03:55:46;;;;;;;113.63;55.37;;;;;;;4.38;82.56;101579.84;5024037;28;20317;-63
2021/03/24 03:58:19;;;;;;;118.40;55.90;;;;;;;4.45;81.75;101580.56;5024626;28;20560;-63
2021/03/24 04:00:53;;;;;;;112.33;53.70;;;;;;;4.51;81.95;101572.50;5027930;28;20293;-63
2021/03/24 04:03:26;;;;;;;110.90;54.20;;;;;;;4.58;81.66;101575.88;5029109;28;20210;-63
2021/03/24 04:05:57;;;;;;;113.73;53.73;;;;;;;4.65;81.57;101577.47;5023264;28;20216;-63
2021/03/24 04:08:28;;;;;;;105.77;50.23;;;;;;;4.69;81.37;101573.81;5028370;28;20623;-61
2021/03/24 04:10:56;;;;;;;110.70;52.70;;;;;;;4.73;81.72;101576.34;5030637;28;20226;-63
2021/03/24 04:13:27;;;;;;;116.50;53.60;;;;;;;4.76;81.47;101583.34;5028769;28;20210;-63
2021/03/24 04:15:56;;;;;;;105.80;49.90;;;;;;;4.78;81.30;101579.75;5025021;28;20214;-62
2021/03/24 04:18:26;;;;;;;105.03;49.50;;;;;;;4.81;81.10;101584.09;5029657;28;20297;-63
2021/03/24 04:20:55;;;;;;;109.20;51.30;;;;;;;4.84;80.55;101581.34;5022325;28;20220;-61
2021/03/24 04:23:25;;;;;;;95.67;48.50;;;;;;;4.85;80.61;101569.91;5031052;28;20425;-63
2021/03/24 04:25:55;;;;;;;98.80;47.60;;;;;;;4.86;80.22;101572.50;5024770;28;20213;-63
2021/03/24 04:28:25;;;;;;;101.20;49.17;;;;;;;4.88;80.55;101578.59;5030352;28;20687;-61
2021/03/24 04:30:55;;;;;;;96.43;47.33;;;;;;;4.89;79.92;101588.25;5027910;28;20228;-62
2021/03/24 04:33:21;;;;;;;102.27;49.50;;;;;;;4.92;80.18;101589.09;5030350;28;20218;-63
2021/03/24 04:35:48;;;;;;;97.93;48.13;;;;;;;4.93;79.83;101588.19;5029263;28;20301;-64
2021/03/24 04:38:25;;;;;;;98.77;46.23;;;;;;;4.94;79.94;101590.78;5030716;28;20212;-63
2021/03/24 04:40:54;;;;;;;93.70;46.50;;;;;;;4.95;79.72;101591.66;5028604;28;20201;-63
2021/03/24 04:43:23;;;;;;;96.07;47.70;;;;;;;4.96;79.38;101593.41;5029557;28;20224;-63
2021/03/24 04:45:55;;;;;;;94.30;47.30;;;;;;;4.95;79.31;101594.31;5024098;28;20209;-63
2021/03/24 04:48:23;;;;;;;91.60;45.17;;;;;;;4.94;79.28;101590.78;5029439;28;20294;-65
2021/03/24 04:50:56;;;;;;;91.73;44.77;;;;;;;4.92;78.61;101594.38;5026445;28;20226;-61
2021/03/24 04:53:25;;;;;;;84.17;43.10;;;;;;;4.91;78.78;101593.50;5027409;28;20644;-63
2021/03/24 04:55:53;;;;;;;88.53;44.53;;;;;;;4.88;78.51;101586.53;5029595;28;20202;-63
2021/03/24 04:58:32;;;;;;;87.77;43.93;;;;;;;4.87;78.54;101595.34;5029311;28;20206;-63
2021/03/24 05:01:04;;;;;;;90.13;43.13;;;;;;;4.87;78.44;101590.06;5026440;28;20210;-63
2021/03/24 05:03:37;;;;;;;84.77;43.30;;;;;;;4.86;78.10;101598.03;5029423;28;20212;-63
2021/03/24 05:06:08;;;;;;;87.10;44.50;;;;;;;4.85;78.31;101591.88;5027548;28;20288;-63
2021/03/24 05:08:39;;;;;;;93.90;42.47;;;;;;;4.85;78.35;101594.50;5029263;28;20203;-63
2021/03/24 05:11:14;;;;;;;89.20;43.40;;;;;;;4.82;77.92;101589.34;5027809;28;20714;-62
2021/03/24 05:13:44;;;;;;;81.47;40.70;;;;;;;4.82;77.49;101591.13;5029349;28;20201;-62
2021/03/24 05:16:18;;;;;;;84.73;42.20;;;;;;;4.80;77.45;101587.63;5027167;28;20259;-62
2021/03/24 05:18:50;;;;;;;82.50;41.33;;;;;;;4.77;77.47;101587.72;5024411;28;20697;-63
2021/03/24 05:21:27;;;;;;;83.53;42.20;;;;;;;4.76;77.48;101584.19;5025115;28;20637;-63
2021/03/24 05:23:57;;;;;;;83.83;41.63;;;;;;;4.73;77.01;101584.28;5025572;28;20217;-61
2021/03/24 05:26:28;;;;;;;82.93;41.27;;;;;;;4.71;77.05;101583.44;5027379;28;20374;-62
2021/03/24 05:28:57;;;;;;;87.70;42.63;;;;;;;4.71;76.78;101587.84;5029364;28;20202;-63
2021/03/24 05:31:26;;;;;;;79.07;40.67;;;;;;;4.69;76.88;101579.97;5025851;28;20233;-60
2021/03/24 05:33:59;;;;;;;80.73;41.23;;;;;;;4.67;77.35;101587.03;5026453;28;20229;-63
2021/03/24 05:36:31;;;;;;;84.57;40.17;;;;;;;4.67;76.65;101583.53;5020894;28;20288;-62
2021/03/24 05:39:11;;;;;;;83.53;40.97;;;;;;;4.64;77.09;101583.66;5029863;28;20210;-63
2021/03/24 05:41:43;;;;;;;84.83;42.00;;;;;;;4.62;76.55;101582.81;5027330;28;20289;-63
2021/03/24 05:44:37;;;;;;;80.97;40.37;;;;;;;4.59;76.32;101586.38;5025351;28;20222;-62
2021/03/24 05:47:20;;;;;;;78.37;39.20;;;;;;;4.56;76.68;101581.16;5004682;28;20268;-62
2021/03/24 05:49:53;;;;;;;76.97;38.73;;;;;;;4.48;75.92;101581.34;5026887;28;20202;-60
2021/03/24 05:52:30;;;;;;;81.27;40.47;;;;;;;4.36;76.26;101581.63;5025664;28;20222;-60
2021/03/24 05:55:19;;;;;;;76.63;39.87;;;;;;;4.25;75.89;101581.03;5021936;28;20225;-63
2021/03/24 05:58:26;;;;;;;76.23;38.13;;;;;;;4.13;76.15;101587.41;5029561;28;20232;-61
2021/03/24 06:00:59;;;;;;;86.73;41.57;;;;;;;4.07;76.47;101579.66;5022753;28;20690;-62
2021/03/24 06:03:56;;;;;;;82.40;40.50;;;;;;;4.04;76.04;101578.84;5030142;28;20340;-62
2021/03/24 06:07:08;;;;;;;81.33;41.23;;;;;;;4.02;76.54;101585.91;5030131;28;20211;-61
2021/03/24 06:10:06;;;;;;;82.47;39.10;;;;;;;4.00;76.46;101588.59;5030491;28;20204;-63
2021/03/24 06:12:54;;;;;;;85.23;41.27;;;;;;;3.99;76.70;101580.72;5031657;28;20611;-63
2021/03/24 06:15:46;;;;;;;85.77;41.27;;;;;;;3.98;76.37;101584.25;5000505;28;20225;-64
2021/03/24 06:18:47;;;;;;;76.70;38.87;;;;;;;3.99;76.71;101580.72;5023704;28;20687;-63
2021/03/24 06:21:22;;;;;;;78.33;40.57;;;;;;;4.02;76.65;101580.66;5012499;28;20672;-63
2021/03/24 06:24:13;;;;;;;80.23;40.37;;;;;;;4.03;76.45;101588.53;5022821;28;20628;-64
2021/03/24 06:26:55;;;;;;;85.00;40.60;;;;;;;4.07;76.41;101589.34;5023900;28;20245;-63
2021/03/24 06:29:35;;;;;;;86.73;41.47;;;;;;;4.09;77.07;101592.81;5025872;28;20209;-63
2021/03/24 06:32:40;;;;;;;81.43;40.07;;;;;;;4.12;77.40;101583.03;5023318;28;20252;-62
2021/03/24 06:35:21;;;;;;;80.03;39.03;;;;;;;4.17;77.59;101583.81;5018791;28;20241;-64
2021/03/24 06:38:18;;;;;;;74.90;38.03;;;;;;;4.27;77.53;101581.84;5021187;28;20256;-64
2021/03/24 06:40:58;;;;;;;79.10;38.60;;;;;;;4.35;77.62;101584.31;5021359;28;20668;-64
2021/03/24 06:43:48;;;;;;;74.73;37.93;;;;;;;4.43;77.20;101579.72;5018627;28;20691;-63
2021/03/24 06:46:27;;;;;;;74.00;36.87;;;;;;;4.50;77.07;101579.53;5020255;28;20587;-62
2021/03/24 06:49:05;;;;;;;74.03;37.07;;;;;;;4.59;77.68;101581.09;5019814;28;20221;-65
2021/03/24 06:52:07;;;;;;;74.03;37.30;;;;;;;4.68;77.54;101578.22;5019441;28;20738;-63
2021/03/24 06:54:59;;;;;;;74.10;35.57;;;;;;;4.77;77.60;101593.84;5019754;28;20810;-64
2021/03/24 06:57:49;;;;;;;66.60;34.50;;;;;;;4.87;77.17;101584.78;5019309;28;20211;-64
2021/03/24 07:00:30;;;;;;;72.87;37.37;;;;;;;4.98;76.81;101589.81;5024044;28;20218;-65
2021/03/24 07:03:33;;;;;;;67.10;35.67;;;;;;;5.08;77.03;101588.66;5024472;28;20827;-65
2021/03/24 07:06:28;;;;;;;68.10;35.10;;;;;;;5.19;76.92;101601.63;5020486;28;20237;-65
2021/03/24 07:09:21;;;;;;;64.00;33.17;;;;;;;5.29;76.32;101600.44;5017474;28;20203;-64
2021/03/24 07:12:03;;;;;;;70.70;34.23;;;;;;;5.40;76.45;101594.88;5021039;28;20254;-65
2021/03/24 07:14:54;;;;;;;71.80;35.10;;;;;;;5.51;76.21;101595.47;5029856;28;20316;-66
2021/03/24 07:17:38;;;;;;;71.57;37.20;;;;;;;5.61;75.90;101602.22;5023993;28;20260;-65
2021/03/24 07:20:27;;;;;;;68.23;35.67;;;;;;;5.72;75.56;101602.81;5027049;28;20578;-64
2021/03/24 07:23:07;;;;;;;63.80;33.20;;;;;;;5.81;75.29;101604.31;5023702;28;20646;-63
2021/03/24 07:25:43;;;;;;;67.20;34.50;;;;;;;5.89;74.78;101600.56;5022969;28;20232;-65
2021/03/24 07:28:41;;;;;;;62.23;33.00;;;;;;;5.99;74.50;101598.50;5025407;28;20202;-65
2021/03/24 07:31:29;;;;;;;66.20;33.57;;;;;;;6.09;74.45;101601.78;5015295;28;20674;-65
2021/03/24 07:34:03;;;;;;;61.90;33.93;;;;;;;6.18;73.75;101601.47;5022090;28;20340;-65
2021/03/24 07:37:05;;;;;;;60.67;32.37;;;;;;;6.30;73.58;101601.09;5024683;28;20210;-65
2021/03/24 07:40:04;;;;;;;59.20;32.83;;;;;;;6.41;72.95;101592.84;5023220;28;20218;-64
2021/03/24 07:43:06;;;;;;;65.57;33.30;;;;;;;6.50;72.63;101581.97;5024833;28;20613;-64
2021/03/24 07:45:59;;;;;;;61.20;33.33;;;;;;;6.60;72.06;101589.59;5022389;28;20222;-64
2021/03/24 07:48:58;;;;;;;58.67;31.93;;;;;;;6.72;72.20;101603.31;5022854;28;20217;-62
2021/03/24 07:51:46;;;;;;;64.43;32.87;;;;;;;6.84;71.65;101598.50;5023784;28;20670;-63
2021/03/24 07:54:20;;;;;;;59.47;31.90;;;;;;;6.98;71.23;101603.34;5023927;28;20678;-63
2021/03/24 07:56:53;;;;;;;69.33;34.43;;;;;;;7.10;71.15;101595.00;5028254;28;20210;-65
2021/03/24 07:59:35;;;;;;;59.53;31.47;;;;;;;7.27;70.72;101594.41;5026849;28;20211;-64
2021/03/24 08:02:20;;;;;;;64.73;32.53;;;;;;;7.44;70.22;101604.41;5024406;28;20191;-64
2021/03/24 08:05:07;;;;;;;63.07;32.93;;;;;;;7.57;69.48;101603.91;5026562;28;20283;-63
2021/03/24 08:07:41;;;;;;;58.97;29.47;;;;;;;7.72;68.94;101598.97;5026705;28;20202;-64
2021/03/24 08:10:27;;;;;;;59.90;31.37;;;;;;;7.84;68.30;101588.81;5024594;28;20293;-64
2021/03/24 08:13:11;;;;;;;54.87;29.37;;;;;;;7.97;67.90;101599.81;5024521;28;20203;-65
2021/03/24 08:15:54;;;;;;;59.17;31.37;;;;;;;8.12;66.94;101593.06;5022281;28;20234;-64
2021/03/24 08:18:33;;;;;;;55.97;29.97;;;;;;;8.25;67.09;101597.84;5027110;28;20651;-64
2021/03/24 08:21:05;;;;;;;54.93;30.77;;;;;;;8.38;66.47;101594.75;5027010;28;20267;-64
2021/03/24 08:23:53;;;;;;;54.80;32.03;;;;;;;8.52;66.00;101587.09;5026349;28;20583;-64
2021/03/24 08:26:26;;;;;;;55.20;30.27;;;;;;;8.69;65.21;101592.59;5028724;28;20253;-63
2021/03/24 08:29:04;;;;;;;52.50;29.53;;;;;;;8.85;65.87;101593.69;5026759;28;20663;-64
2021/03/24 08:32:03;;;;;;;56.60;30.13;;;;;;;8.98;64.44;101596.72;5023976;28;20317;-63
2021/03/24 08:34:50;;;;;;;50.73;28.87;;;;;;;9.11;64.03;101586.44;5027163;28;20225;-65
2021/03/24 08:37:44;;;;;;;51.87;28.87;;;;;;;9.24;63.19;101585.00;5026639;28;20206;-64
2021/03/24 08:40:58;;;;;;;49.77;28.70;;;;;;;9.33;63.26;101590.75;5025232;28;20211;-64
2021/03/24 08:43:38;;;;;;;52.97;27.53;;;;;;;9.43;62.64;101593.03;4952169;28;20213;-64
2021/03/24 08:46:12;;;;;;;51.43;29.50;;;;;;;9.56;61.76;101588.91;5026255;28;20224;-64
2021/03/24 08:48:43;;;;;;;57.33;29.77;;;;;;;9.61;61.99;101598.41;5025987;28;20213;-65
2021/03/24 08:51:16;;;;;;;51.17;28.13;;;;;;;9.72;61.22;101588.16;5026123;28;20226;-64
2021/03/24 08:53:55;;;;;;;48.37;28.50;;;;;;;9.84;61.32;101592.06;5025789;28;20214;-64
2021/03/24 08:56:30;;;;;;;48.93;28.60;;;;;;;9.97;61.24;101592.38;5027784;28;20206;-64
2021/03/24 08:59:13;;;;;;;53.10;28.83;;;;;;;10.10;60.76;101580.22;5027427;28;20631;-65
2021/03/24 09:01:56;;;;;;;52.17;27.50;;;;;;;10.26;60.44;101575.06;5026018;28;20698;-64
2021/03/24 09:04:48;;;;;;;56.03;30.00;;;;;;;10.41;59.83;101577.00;5024370;28;20232;-64
2021/03/24 09:07:34;;;;;;;49.70;26.40;;;;;;;10.54;58.83;101572.81;5025506;28;20301;-65
2021/03/24 09:10:20;;;;;;;52.53;28.57;;;;;;;10.61;58.50;101573.38;5025461;28;20198;-65
2021/03/24 09:12:52;;;;;;;57.10;27.80;;;;;;;10.67;57.96;101571.28;5025427;28;20711;-64
2021/03/24 09:15:24;;;;;;;48.60;29.43;;;;;;;10.74;57.99;101567.38;5027484;28;20232;-65
2021/03/24 09:18:03;;;;;;;48.37;28.67;;;;;;;10.83;57.67;101571.38;5026084;28;20697;-65
2021/03/24 09:21:10;;;;;;;52.73;28.17;;;;;;;10.93;57.31;101564.63;5026742;28;20255;-65
2021/03/24 09:24:06;;;;;;;48.47;28.93;;;;;;;11.03;57.21;101562.38;4994277;28;20202;-65
2021/03/24 09:27:04;;;;;;;46.03;28.90;;;;;;;11.17;57.06;101561.69;5026150;28;20204;-64
2021/03/24 09:29:40;;;;;;;48.67;28.77;;;;;;;11.28;56.37;101562.88;5028455;28;20228;-64
2021/03/24 09:32:29;;;;;;;53.90;30.43;;;;;;;11.37;55.95;101566.84;5025412;28;20267;-64
2021/03/24 09:35:02;;;;;;;48.40;28.30;;;;;;;11.43;55.75;101564.72;5030889;28;20221;-66
2021/03/24 09:37:32;;;;;;;47.90;27.47;;;;;;;11.50;55.64;101562.59;5031394;28;20259;-64
2021/03/24 09:40:01;;;;;;;49.70;30.03;;;;;;;11.60;55.57;101569.19;5032937;28;20206;-65
2021/03/24 09:42:31;;;;;;;49.60;28.17;;;;;;;11.69;55.31;101571.34;5032834;28;20206;-65
2021/03/24 09:45:07;;;;;;;55.07;30.23;;;;;;;11.73;54.57;101564.03;5030582;28;20223;-66
2021/03/24 09:47:41;;;;;;;50.77;29.87;;;;;;;11.76;54.65;101563.91;5030034;28;20209;-64
2021/03/24 09:50:34;;;;;;;53.97;29.80;;;;;;;11.85;54.73;101562.53;5032402;28;20220;-66
2021/03/24 09:53:05;;;;;;;53.30;30.10;;;;;;;11.93;54.46;101565.66;5021485;28;20598;-64
2021/03/24 09:55:35;;;;;;;53.33;29.87;;;;;;;12.04;54.49;101568.59;5026770;28;20284;-64
2021/03/24 09:58:37;;;;;;;46.87;29.03;;;;;;;12.09;53.79;101563.88;5024117;28;20740;-65
2021/03/24 10:01:23;;;;;;;53.67;31.07;;;;;;;12.14;54.00;101562.69;5025685;28;20199;-64
2021/03/24 10:03:58;;;;;;;50.00;28.67;;;;;;;12.23;53.77;101553.28;5027258;28;20230;-64
2021/03/24 10:06:29;;;;;;;46.47;28.67;;;;;;;12.30;53.57;101557.34;5020825;28;20202;-65
2021/03/24 10:09:04;;;;;;;51.57;29.67;;;;;;;12.38;53.31;101551.56;5027722;28;20301;-65
2021/03/24 10:11:40;;;;;;;53.47;30.67;;;;;;;12.41;52.96;101552.25;5026301;28;20227;-63
2021/03/24 10:14:10;;;;;;;52.67;31.00;;;;;;;12.47;52.94;101556.41;5027961;28;20702;-64
2021/03/24 10:16:42;;;;;;;51.33;29.37;;;;;;;12.55;52.90;101545.25;5024754;28;20250;-64
2021/03/24 10:19:18;;;;;;;54.07;29.80;;;;;;;12.58;52.65;101542.41;5023592;28;20703;-61
2021/03/24 10:21:49;;;;;;;47.97;29.57;;;;;;;12.64;52.77;101544.75;5022060;28;20300;-64
2021/03/24 10:24:18;;;;;;;54.93;31.07;;;;;;;12.69;52.91;101543.53;5023777;28;20222;-65
2021/03/24 10:26:55;;;;;;;52.00;29.60;;;;;;;12.78;52.82;101544.78;5026359;28;20579;-65
2021/03/24 10:29:25;;;;;;;47.60;28.87;;;;;;;12.87;52.22;101544.28;5028810;28;20252;-65
2021/03/24 10:31:56;;;;;;;52.27;30.60;;;;;;;12.90;51.74;101540.56;5029123;28;20592;-66
2021/03/24 10:34:28;;;;;;;51.13;30.00;;;;;;;12.93;52.06;101535.00;5029835;28;20225;-65
2021/03/24 10:37:00;;;;;;;47.53;28.73;;;;;;;13.01;51.91;101533.63;5028133;28;20214;-65
2021/03/24 10:39:32;;;;;;;47.57;30.07;;;;;;;13.06;51.90;101526.19;5019950;28;20214;-65
2021/03/24 10:42:04;;;;;;;49.03;28.70;;;;;;;13.12;51.52;101533.84;5021971;28;20205;-65
2021/03/24 10:44:43;;;;;;;52.17;29.93;;;;;;;13.16;51.56;101523.84;5030157;28;20217;-65
2021/03/24 10:47:18;;;;;;;46.10;27.60;;;;;;;13.24;51.18;101526.06;5023632;28;20210;-65
2021/03/24 10:50:02;;;;;;;52.73;29.43;;;;;;;13.31;50.67;101524.72;5027007;28;20246;-65
2021/03/24 10:52:37;;;;;;;51.67;27.80;;;;;;;13.38;50.77;101526.09;5026829;28;20707;-65
2021/03/24 10:55:11;;;;;;;46.50;28.97;;;;;;;13.46;50.23;101516.63;5022752;28;20252;-64
2021/03/24 10:57:58;;;;;;;48.27;27.97;;;;;;;13.55;50.37;101515.22;5019274;28;20210;-64
2021/03/24 11:00:30;;;;;;;49.50;28.80;;;;;;;13.55;50.11;101518.75;5018697;28;20237;-66
2021/03/24 11:03:06;;;;;;;48.77;28.33;;;;;;;13.57;50.32;101513.28;5020209;28;20194;-65
2021/03/24 11:05:41;;;;;;;48.47;29.47;;;;;;;13.60;49.77;101513.13;5027365;28;20240;-65
2021/03/24 11:08:20;;;;;;;52.27;28.63;;;;;;;13.64;50.00;101509.25;5022216;28;20194;-65
2021/03/24 11:10:52;;;;;;;49.43;29.33;;;;;;;13.66;49.42;101504.69;5023540;28;20212;-64
2021/03/24 11:13:23;;;;;;;45.13;28.83;;;;;;;13.70;49.41;101508.03;5023779;28;20210;-65
2021/03/24 11:16:06;;;;;;;48.93;29.30;;;;;;;13.74;49.54;101491.69;5026245;28;20681;-65
2021/03/24 11:18:40;;;;;;;48.40;29.20;;;;;;;13.77;49.38;101487.97;5019186;28;20507;-66
2021/03/24 11:21:20;;;;;;;44.23;28.93;;;;;;;13.79;49.05;101494.91;5024682;28;20586;-66
2021/03/24 11:23:50;;;;;;;47.57;27.17;;;;;;;13.79;49.07;101496.75;5022464;28;20254;-65
2021/03/24 11:26:44;;;;;;;47.00;28.47;;;;;;;13.78;49.32;101485.19;5022679;28;20260;-66
2021/03/24 11:29:14;;;;;;;57.13;27.90;;;;;;;13.82;49.05;101483.16;5025541;28;20293;-66
2021/03/24 11:31:52;;;;;;;44.40;28.23;;;;;;;13.86;49.12;101480.19;5027049;28;20644;-63
2021/03/24 11:34:23;;;;;;;44.30;26.90;;;;;;;13.95;48.86;101475.22;5027192;28;20264;-67
2021/03/24 11:36:56;;;;;;;46.30;27.13;;;;;;;13.96;48.95;101467.09;5019094;28;20210;-65
2021/03/24 11:39:27;;;;;;;48.43;28.33;;;;;;;14.00;48.93;101479.28;5027536;28;20207;-65
2021/03/24 11:42:08;;;;;;;46.13;28.20;;;;;;;14.03;48.79;101472.88;5027813;28;20241;-66
2021/03/24 11:44:35;;;;;;;52.80;28.57;;;;;;;14.07;49.05;101467.25;5023769;28;20606;-65
2021/03/24 11:47:10;;;;;;;49.33;29.60;;;;;;;14.14;49.23;101465.03;5023654;28;20225;-64
2021/03/24 11:49:46;;;;;;;47.77;27.80;;;;;;;14.19;49.13;101458.41;5031122;28;20206;-66
2021/03/24 11:52:35;;;;;;;42.67;25.93;;;;;;;14.23;48.41;101465.28;5028044;28;20221;-65